Time;durP1;ratioP1;P1;durP2;ratioP2;P2;SDS_P1;SDS_P2;PMS_P1;PMS_P2;Temp;Humidity;BMP_temperature;BMP_pressure;BME280_temperature;BME280_humidity;BME280_pressure;Samples;Min_cycle;Max_cycle;Signal;HPM_P1;HPM_P2
2023/04/18 00:01:25;;;;;;;;;;;11.00;99.90;;;;;;5095251;28;19912;-68
2023/04/18 00:03:51;;;;;;;;;;;11.00;99.90;;;;;;5095211;28;20507;-68
2023/04/18 00:06:17;;;;;;;;;;;11.00;99.90;;;;;;5081397;28;19917;-68
2023/04/18 00:08:42;;;;;;;;;;;11.00;99.90;;;;;;5075010;28;20018;-68
2023/04/18 00:11:08;;;;;;;;;;;11.00;99.90;;;;;;5074570;28;19916;-68
2023/04/18 00:13:34;;;;;;;;;;;11.00;99.90;;;;;;5074688;28;19916;-68
2023/04/18 00:16:01;;;;;;;;;;;11.10;99.90;;;;;;5075024;28;19912;-68
2023/04/18 00:18:27;;;;;;;;;;;11.10;99.90;;;;;;5075011;28;19912;-68
2023/04/18 00:20:53;;;;;;;;;;;11.10;99.90;;;;;;5074867;28;19909;-67
2023/04/18 00:23:20;;;;;;;;;;;11.20;99.90;;;;;;5075087;28;20340;-67
2023/04/18 00:25:46;;;;;;;;;;;11.10;99.90;;;;;;5074675;28;19919;-67
2023/04/18 00:28:12;;;;;;;;;;;11.10;99.90;;;;;;5074936;28;19923;-68
2023/04/18 00:30:38;;;;;;;;;;;11.00;99.90;;;;;;5074708;28;19924;-68
2023/04/18 00:33:03;;;;;;;;;;;11.00;99.90;;;;;;5074650;28;19912;-68
2023/04/18 00:35:30;;;;;;;;;;;11.00;99.90;;;;;;5074603;28;19919;-68
2023/04/18 00:37:56;;;;;;;;;;;11.00;99.90;;;;;;5074711;28;20041;-68
2023/04/18 00:40:22;;;;;;;;;;;11.00;99.90;;;;;;5056549;28;19913;-68
2023/04/18 00:42:48;;;;;;;;;;;11.00;99.90;;;;;;5073451;28;20286;-68
2023/04/18 00:45:14;;;;;;;;;;;11.00;99.90;;;;;;5074679;28;19920;-67
2023/04/18 00:47:40;;;;;;;;;;;11.00;99.90;;;;;;5074522;28;19930;-68
2023/04/18 00:50:06;;;;;;;;;;;11.10;99.90;;;;;;5057984;28;19916;-68
2023/04/18 00:52:34;;;;;;;;;;;11.10;99.90;;;;;;5078640;28;19913;-68
2023/04/18 00:55:01;;;;;;;;;;;11.10;99.90;;;;;;5057048;28;19928;-68
2023/04/18 00:57:27;;;;;;;;;;;11.10;99.90;;;;;;5058551;28;19920;-68
2023/04/18 00:59:53;;;;;;;;;;;11.00;99.90;;;;;;5057116;28;20278;-68
2023/04/18 01:02:19;;;;;;;;;;;11.00;99.90;;;;;;5058251;28;19917;-68
2023/04/18 01:04:45;;;;;;;;;;;11.00;99.90;;;;;;5059503;28;19924;-68
2023/04/18 01:07:13;;;;;;;;;;;10.90;99.90;;;;;;5078314;28;19920;-68
2023/04/18 01:09:39;;;;;;;;;;;11.00;99.90;;;;;;5110295;28;19970;-68
2023/04/18 01:12:05;;;;;;;;;;;10.90;99.90;;;;;;5078162;28;19923;-68
2023/04/18 01:14:30;;;;;;;;;;;10.90;99.90;;;;;;5078177;28;19916;-68
2023/04/18 01:16:57;;;;;;;;;;;10.90;99.90;;;;;;5078019;28;19913;-68
2023/04/18 01:19:23;;;;;;;;;;;10.80;99.90;;;;;;5110632;28;19913;-68
2023/04/18 01:21:52;;;;;;;;;;;10.80;99.90;;;;;;5078040;28;19989;-68
2023/04/18 01:24:18;;;;;;;;;;;10.90;99.90;;;;;;5077910;28;20556;-68
2023/04/18 01:26:46;;;;;;;;;;;10.90;99.90;;;;;;5078156;28;19951;-68
2023/04/18 01:29:12;;;;;;;;;;;10.90;99.90;;;;;;5076571;28;19913;-68
2023/04/18 01:31:38;;;;;;;;;;;10.90;99.90;;;;;;5110068;28;20403;-68
2023/04/18 01:34:06;;;;;;;;;;;10.90;99.90;;;;;;5077702;28;19919;-68
2023/04/18 01:36:32;;;;;;;;;;;10.90;99.90;;;;;;5077622;28;19947;-68
2023/04/18 01:38:58;;;;;;;;;;;10.90;99.90;;;;;;5076416;28;19917;-68
2023/04/18 01:41:24;;;;;;;;;;;10.90;99.90;;;;;;5076334;28;19917;-68
2023/04/18 01:43:50;;;;;;;;;;;10.90;99.90;;;;;;5077667;28;19973;-68
2023/04/18 01:46:16;;;;;;;;;;;11.00;99.90;;;;;;5077517;28;20058;-68
2023/04/18 01:48:41;;;;;;;;;;;11.00;99.90;;;;;;5077623;28;20358;-68
2023/04/18 01:51:07;;;;;;;;;;;11.00;99.90;;;;;;5077233;28;19919;-68
2023/04/18 01:53:33;;;;;;;;;;;11.00;99.90;;;;;;5077422;28;20017;-68
2023/04/18 01:55:59;;;;;;;;;;;11.00;99.90;;;;;;5076027;28;19920;-68
2023/04/18 01:58:25;;;;;;;;;;;11.00;99.90;;;;;;5075923;28;19919;-68
2023/04/18 02:00:52;;;;;;;;;;;11.10;99.90;;;;;;5109715;28;19912;-68
2023/04/18 02:03:18;;;;;;;;;;;11.00;99.90;;;;;;5077256;28;20132;-68
2023/04/18 02:05:45;;;;;;;;;;;11.10;99.90;;;;;;5068009;28;19944;-68
2023/04/18 02:08:10;;;;;;;;;;;11.10;99.90;;;;;;5057075;28;19917;-68
2023/04/18 02:10:36;;;;;;;;;;;11.10;99.90;;;;;;5056919;28;19920;-68
2023/04/18 02:13:03;;;;;;;;;;;11.10;99.90;;;;;;5072280;28;19913;-68
2023/04/18 02:15:29;;;;;;;;;;;11.10;99.90;;;;;;5057187;28;19958;-68
2023/04/18 02:17:54;;;;;;;;;;;11.10;99.90;;;;;;5057364;28;19963;-67
2023/04/18 02:20:22;;;;;;;;;;;11.10;99.90;;;;;;5056769;28;19913;-68
2023/04/18 02:22:48;;;;;;;;;;;11.10;99.90;;;;;;5089159;28;19932;-68
2023/04/18 02:25:14;;;;;;;;;;;11.10;99.90;;;;;;5056762;28;19983;-68
2023/04/18 02:27:40;;;;;;;;;;;11.10;99.90;;;;;;5056686;28;20003;-68
2023/04/18 02:30:06;;;;;;;;;;;11.10;99.90;;;;;;5056579;28;20279;-68
2023/04/18 02:32:33;;;;;;;;;;;11.10;99.90;;;;;;5088660;28;19924;-68
2023/04/18 02:34:58;;;;;;;;;;;11.20;99.90;;;;;;5055065;28;20313;-68
2023/04/18 02:37:24;;;;;;;;;;;11.20;99.90;;;;;;5056734;28;19971;-68
2023/04/18 02:39:50;;;;;;;;;;;11.10;99.90;;;;;;5055280;28;19952;-68
2023/04/18 02:42:16;;;;;;;;;;;11.10;99.90;;;;;;5056496;28;19963;-67
2023/04/18 02:44:41;;;;;;;;;;;11.10;99.90;;;;;;5056368;28;19940;-68
2023/04/18 02:47:08;;;;;;;;;;;11.00;99.90;;;;;;5055028;28;19916;-68
2023/04/18 02:49:37;;;;;;;;;;;11.00;99.90;;;;;;5056069;28;20354;-67
2023/04/18 02:52:03;;;;;;;;;;;11.00;99.90;;;;;;5054892;28;19923;-67
2023/04/18 02:54:29;;;;;;;;;;;11.00;99.90;;;;;;5071420;28;19916;-66
2023/04/18 02:57:06;;;;;;;;;;;11.00;99.90;;;;;;5054796;28;19928;-67
2023/04/18 02:59:45;;;;;;;;;;;11.10;99.90;;;;;;5054589;28;19913;-68
2023/04/18 03:02:26;;;;;;;;;;;11.10;99.90;;;;;;5054894;28;19913;-68
2023/04/18 03:04:57;;;;;;;;;;;11.00;99.90;;;;;;5074081;28;20061;-68
2023/04/18 03:07:23;;;;;;;;;;;11.00;99.90;;;;;;5074636;28;19920;-67
2023/04/18 03:09:50;;;;;;;;;;;11.10;99.90;;;;;;5074108;28;19987;-67
2023/04/18 03:12:21;;;;;;;;;;;11.00;99.90;;;;;;5107896;28;19923;-67
2023/04/18 03:14:47;;;;;;;;;;;11.00;99.90;;;;;;5074704;28;19913;-68
2023/04/18 03:17:13;;;;;;;;;;;11.00;99.90;;;;;;5108522;28;20369;-68
2023/04/18 03:19:43;;;;;;;;;;;10.90;99.90;;;;;;5074318;28;19916;-67
2023/04/18 03:22:13;;;;;;;;;;;10.90;99.90;;;;;;5074420;28;19913;-67
2023/04/18 03:24:46;;;;;;;;;;;10.90;99.90;;;;;;5074221;28;20344;-68
2023/04/18 03:27:13;;;;;;;;;;;11.00;99.90;;;;;;5074270;28;19912;-67
2023/04/18 03:29:41;;;;;;;;;;;11.00;99.90;;;;;;5074258;28;19962;-67
2023/04/18 03:32:07;;;;;;;;;;;11.00;99.90;;;;;;5075425;28;20007;-67
2023/04/18 03:34:33;;;;;;;;;;;10.90;99.90;;;;;;5074169;28;19947;-67
2023/04/18 03:36:59;;;;;;;;;;;10.90;99.90;;;;;;5074007;28;19916;-67
2023/04/18 03:39:27;;;;;;;;;;;10.90;99.90;;;;;;5074030;28;19936;-67
2023/04/18 03:41:53;;;;;;;;;;;10.80;99.90;;;;;;5074117;28;20345;-67
2023/04/18 03:44:19;;;;;;;;;;;10.90;99.90;;;;;;5107805;28;20407;-68
2023/04/18 03:46:45;;;;;;;;;;;10.80;99.90;;;;;;5073834;28;19916;-68
2023/04/18 03:49:11;;;;;;;;;;;10.90;99.90;;;;;;5073644;28;20438;-68
2023/04/18 03:51:42;;;;;;;;;;;10.80;99.90;;;;;;5073624;28;19916;-68
2023/04/18 03:54:08;;;;;;;;;;;10.80;99.90;;;;;;5073671;28;19923;-67
2023/04/18 03:56:34;;;;;;;;;;;10.90;99.90;;;;;;5073405;28;19921;-67
2023/04/18 03:59:00;;;;;;;;;;;10.90;99.90;;;;;;5075251;28;20007;-67
2023/04/18 04:01:26;;;;;;;;;;;10.90;99.90;;;;;;5073672;28;19913;-68
2023/04/18 04:03:52;;;;;;;;;;;10.90;99.90;;;;;;5073329;28;19912;-68
2023/04/18 04:06:19;;;;;;;;;;;10.90;99.90;;;;;;5059856;28;19920;-68
2023/04/18 04:08:44;;;;;;;;;;;10.90;99.90;;;;;;5053343;28;19936;-68
2023/04/18 04:11:11;;;;;;;;;;;10.90;99.90;;;;;;5053524;28;19942;-68
2023/04/18 04:13:37;;;;;;;;;;;10.90;99.90;;;;;;5053429;28;19966;-68
2023/04/18 04:16:04;;;;;;;;;;;10.90;99.90;;;;;;5070108;28;19954;-68
2023/04/18 04:18:30;;;;;;;;;;;10.90;99.90;;;;;;5070089;28;19921;-68
2023/04/18 04:20:58;;;;;;;;;;;11.00;99.90;;;;;;5053535;28;19916;-68
2023/04/18 04:23:34;;;;;;;;;;;11.00;99.90;;;;;;5069624;28;20020;-68
2023/04/18 04:26:03;;;;;;;;;;;11.00;99.90;;;;;;5052980;28;19913;-68
2023/04/18 04:28:46;;;;;;;;;;;11.00;99.90;;;;;;5086582;28;19913;-68
2023/04/18 04:31:15;;;;;;;;;;;11.00;99.90;;;;;;5053318;28;19917;-68
2023/04/18 04:33:42;;;;;;;;;;;11.00;99.90;;;;;;5053270;28;19913;-68
2023/04/18 04:36:15;;;;;;;;;;;10.90;99.90;;;;;;5053362;28;20408;-68
2023/04/18 04:38:43;;;;;;;;;;;10.90;99.90;;;;;;5053226;28;19913;-68
2023/04/18 04:41:10;;;;;;;;;;;11.00;99.90;;;;;;5053160;28;19917;-68
2023/04/18 04:43:39;;;;;;;;;;;11.00;99.90;;;;;;5053080;28;19916;-68
2023/04/18 04:46:06;;;;;;;;;;;11.00;99.90;;;;;;5052940;28;19938;-68
2023/04/18 04:48:32;;;;;;;;;;;10.90;99.90;;;;;;5069726;28;19917;-68
2023/04/18 04:50:59;;;;;;;;;;;10.90;99.90;;;;;;5054407;28;19923;-68
2023/04/18 04:53:26;;;;;;;;;;;10.90;99.90;;;;;;5053275;28;19908;-68
2023/04/18 04:55:53;;;;;;;;;;;11.00;99.90;;;;;;5069630;28;19924;-68
2023/04/18 04:58:19;;;;;;;;;;;11.00;99.90;;;;;;5053347;28;19912;-68
2023/04/18 05:01:06;;;;;;;;;;;11.10;99.90;;;;;;5054577;28;20416;-68
2023/04/18 05:03:33;;;;;;;;;;;11.10;99.90;;;;;;5052880;28;19917;-68
2023/04/18 05:05:58;;;;;;;;;;;11.00;99.90;;;;;;5063978;28;20425;-68
2023/04/18 05:08:25;;;;;;;;;;;11.10;99.90;;;;;;5074275;28;19917;-68
2023/04/18 05:10:50;;;;;;;;;;;11.10;99.90;;;;;;5074292;28;19966;-68
2023/04/18 05:13:16;;;;;;;;;;;11.10;99.90;;;;;;5073949;28;19913;-68
2023/04/18 05:15:42;;;;;;;;;;;11.10;99.90;;;;;;5074274;28;19923;-68
2023/04/18 05:18:08;;;;;;;;;;;11.10;99.90;;;;;;5075085;28;19908;-68
2023/04/18 05:20:33;;;;;;;;;;;11.10;99.90;;;;;;5074790;28;19912;-68
2023/04/18 05:22:59;;;;;;;;;;;11.20;99.90;;;;;;5074201;28;19995;-68
2023/04/18 05:25:28;;;;;;;;;;;11.20;99.90;;;;;;5074113;28;19942;-68
2023/04/18 05:27:54;;;;;;;;;;;11.20;99.90;;;;;;5073983;28;19912;-68
2023/04/18 05:30:20;;;;;;;;;;;11.30;99.90;;;;;;5073639;28;20053;-68
2023/04/18 05:32:48;;;;;;;;;;;11.30;99.90;;;;;;5072194;28;19917;-68
2023/04/18 05:35:14;;;;;;;;;;;11.50;99.90;;;;;;5074130;28;19913;-68
2023/04/18 05:37:40;;;;;;;;;;;11.50;99.90;;;;;;5077218;28;20002;-68
2023/04/18 05:40:07;;;;;;;;;;;11.40;99.90;;;;;;5076895;28;19935;-68
2023/04/18 05:42:33;;;;;;;;;;;11.50;99.90;;;;;;5076995;28;19913;-68
2023/04/18 05:44:59;;;;;;;;;;;11.50;99.90;;;;;;5076828;28;19917;-68
2023/04/18 05:47:27;;;;;;;;;;;11.60;99.90;;;;;;5076798;28;20276;-68
2023/04/18 05:49:53;;;;;;;;;;;11.60;99.90;;;;;;5076935;28;19962;-68
2023/04/18 05:52:19;;;;;;;;;;;11.70;99.90;;;;;;5076019;28;20381;-68
2023/04/18 05:54:45;;;;;;;;;;;11.60;99.90;;;;;;5076069;28;19912;-68
2023/04/18 05:57:15;;;;;;;;;;;11.70;99.90;;;;;;5076886;28;20007;-68
2023/04/18 05:59:41;;;;;;;;;;;11.70;99.90;;;;;;5075675;28;19913;-68
2023/04/18 06:02:12;;;;;;;;;;;11.80;99.90;;;;;;5076431;28;19912;-68
2023/04/18 06:04:38;;;;;;;;;;;11.70;99.90;;;;;;5076626;28;19958;-68
2023/04/18 06:07:08;;;;;;;;;;;11.80;99.90;;;;;;5075482;28;19917;-68
2023/04/18 06:09:38;;;;;;;;;;;11.90;99.90;;;;;;5075575;28;21307;-68
2023/04/18 06:12:04;;;;;;;;;;;11.90;99.90;;;;;;5076346;28;20011;-68
2023/04/18 06:14:30;;;;;;;;;;;12.00;99.90;;;;;;5076386;28;19919;-68
2023/04/18 06:16:56;;;;;;;;;;;12.00;99.90;;;;;;5076641;28;19958;-68
2023/04/18 06:19:22;;;;;;;;;;;12.10;99.90;;;;;;5077186;28;19991;-68
2023/04/18 06:21:48;;;;;;;;;;;12.10;99.90;;;;;;5076868;28;19920;-68
2023/04/18 06:24:14;;;;;;;;;;;12.20;99.90;;;;;;5076136;28;20316;-68
2023/04/18 06:26:39;;;;;;;;;;;12.30;99.90;;;;;;5076408;28;20289;-68
2023/04/18 06:29:05;;;;;;;;;;;12.20;99.90;;;;;;5076591;28;19920;-68
2023/04/18 06:31:31;;;;;;;;;;;12.20;99.90;;;;;;5075610;28;19922;-68
2023/04/18 06:33:57;;;;;;;;;;;12.20;99.90;;;;;;5076143;28;19916;-68
2023/04/18 06:36:23;;;;;;;;;;;12.20;99.90;;;;;;5075758;28;19920;-68
2023/04/18 06:38:48;;;;;;;;;;;12.30;99.90;;;;;;5075635;28;19973;-68
2023/04/18 06:41:14;;;;;;;;;;;12.40;99.90;;;;;;5076116;28;19958;-68
2023/04/18 06:43:40;;;;;;;;;;;12.30;99.90;;;;;;5076170;28;19923;-69
2023/04/18 06:46:07;;;;;;;;;;;12.20;99.90;;;;;;5074828;28;19923;-69
2023/04/18 06:48:33;;;;;;;;;;;12.20;99.90;;;;;;5075254;28;19939;-68
2023/04/18 06:50:58;;;;;;;;;;;12.40;99.90;;;;;;5076159;28;19921;-68
2023/04/18 06:53:24;;;;;;;;;;;12.40;99.90;;;;;;5076315;28;19912;-68
2023/04/18 06:55:50;;;;;;;;;;;12.40;99.90;;;;;;5076170;28;19934;-68
2023/04/18 06:58:16;;;;;;;;;;;12.50;99.90;;;;;;5076028;28;19913;-69
2023/04/18 07:00:47;;;;;;;;;;;12.50;99.90;;;;;;5076021;28;20206;-68
2023/04/18 07:03:13;;;;;;;;;;;12.50;99.90;;;;;;5075954;28;20362;-68
2023/04/18 07:05:39;;;;;;;;;;;12.50;99.90;;;;;;5073905;28;19964;-68
2023/04/18 07:08:05;;;;;;;;;;;12.40;99.90;;;;;;5073857;28;19916;-69
2023/04/18 07:10:30;;;;;;;;;;;12.40;99.90;;;;;;5075175;28;19916;-68
2023/04/18 07:12:56;;;;;;;;;;;12.40;99.90;;;;;;5075156;28;19916;-68
2023/04/18 07:15:22;;;;;;;;;;;12.60;99.90;;;;;;5074648;28;19920;-68
2023/04/18 07:17:48;;;;;;;;;;;12.70;99.90;;;;;;5074965;28;20314;-68
2023/04/18 07:20:14;;;;;;;;;;;12.80;99.90;;;;;;5075063;28;19913;-68
2023/04/18 07:22:40;;;;;;;;;;;12.90;99.90;;;;;;5074959;28;19917;-68
2023/04/18 07:25:06;;;;;;;;;;;13.00;99.90;;;;;;5075207;28;19916;-68
2023/04/18 07:27:35;;;;;;;;;;;13.10;99.90;;;;;;5075083;28;20003;-68
2023/04/18 07:30:01;;;;;;;;;;;13.20;99.90;;;;;;5075123;28;19913;-68
2023/04/18 07:32:27;;;;;;;;;;;13.30;99.90;;;;;;5074627;28;19916;-68
2023/04/18 07:34:54;;;;;;;;;;;13.40;99.90;;;;;;5074378;28;20019;-68
2023/04/18 07:37:20;;;;;;;;;;;13.40;99.90;;;;;;5074343;28;19983;-68
2023/04/18 07:39:46;;;;;;;;;;;13.50;99.90;;;;;;5075320;28;20430;-68
2023/04/18 07:42:15;;;;;;;;;;;13.40;99.90;;;;;;5074187;28;20012;-68
2023/04/18 07:44:41;;;;;;;;;;;13.40;99.90;;;;;;5073379;28;20358;-68
2023/04/18 07:47:10;;;;;;;;;;;13.20;99.90;;;;;;5074713;28;20281;-68
2023/04/18 07:49:38;;;;;;;;;;;13.20;99.90;;;;;;5075331;28;19966;-68
2023/04/18 07:52:04;;;;;;;;;;;13.10;99.90;;;;;;5075341;28;19958;-68
2023/04/18 07:54:30;;;;;;;;;;;13.20;99.90;;;;;;5075426;28;19912;-68
2023/04/18 07:56:56;;;;;;;;;;;13.30;99.90;;;;;;5075646;28;19923;-68
2023/04/18 07:59:22;;;;;;;;;;;13.20;99.90;;;;;;5075609;28;20381;-68
2023/04/18 08:01:48;;;;;;;;;;;13.30;99.90;;;;;;5075792;28;19924;-68
2023/04/18 08:04:14;;;;;;;;;;;13.20;99.90;;;;;;5075537;28;20020;-68
2023/04/18 08:06:40;;;;;;;;;;;13.30;99.90;;;;;;5074912;28;19916;-68
2023/04/18 08:09:06;;;;;;;;;;;13.30;99.90;;;;;;5075470;28;19974;-68
2023/04/18 08:11:35;;;;;;;;;;;13.40;99.90;;;;;;5075401;28;20374;-68
2023/04/18 08:14:00;;;;;;;;;;;13.50;99.90;;;;;;5075009;28;19919;-68
2023/04/18 08:16:27;;;;;;;;;;;13.60;99.90;;;;;;5075717;28;19999;-68
2023/04/18 08:18:53;;;;;;;;;;;13.80;99.90;;;;;;5075376;28;20365;-68
2023/04/18 08:21:19;;;;;;;;;;;13.90;99.90;;;;;;5074535;28;19920;-68
2023/04/18 08:23:45;;;;;;;;;;;13.70;99.90;;;;;;5075230;28;19912;-68
2023/04/18 08:26:11;;;;;;;;;;;13.80;99.90;;;;;;5075119;28;19927;-68
2023/04/18 08:28:37;;;;;;;;;;;13.90;99.90;;;;;;5073750;28;19912;-68
2023/04/18 08:31:03;;;;;;;;;;;13.90;99.90;;;;;;5089625;28;20058;-68
2023/04/18 08:33:28;;;;;;;;;;;14.10;99.90;;;;;;5085801;28;19917;-68
2023/04/18 08:35:54;;;;;;;;;;;14.10;99.90;;;;;;5084075;28;19923;-68
2023/04/18 08:38:20;;;;;;;;;;;13.90;99.90;;;;;;5094252;28;19912;-68
2023/04/18 08:40:46;;;;;;;;;;;14.00;99.90;;;;;;5095438;28;19913;-68
2023/04/18 08:43:13;;;;;;;;;;;13.90;99.90;;;;;;5095409;28;20319;-68
2023/04/18 08:45:40;;;;;;;;;;;13.90;99.90;;;;;;5094465;28;19916;-68
2023/04/18 08:48:06;;;;;;;;;;;14.00;99.90;;;;;;5095044;28;19916;-68
2023/04/18 08:50:32;;;;;;;;;;;14.00;99.90;;;;;;5095161;28;19912;-68
2023/04/18 08:53:01;;;;;;;;;;;13.90;99.90;;;;;;5095328;28;19999;-68
2023/04/18 08:55:27;;;;;;;;;;;13.60;99.90;;;;;;5095044;28;19971;-68
2023/04/18 08:57:53;;;;;;;;;;;13.70;99.90;;;;;;5093632;28;19912;-68
2023/04/18 09:00:19;;;;;;;;;;;13.80;99.90;;;;;;5093923;28;19919;-68
2023/04/18 09:02:45;;;;;;;;;;;13.70;99.90;;;;;;5090790;28;19916;-68
2023/04/18 09:05:16;;;;;;;;;;;13.80;99.90;;;;;;5094404;28;19920;-68
2023/04/18 09:07:42;;;;;;;;;;;13.70;99.90;;;;;;5094506;28;19912;-69
2023/04/18 09:10:08;;;;;;;;;;;13.70;99.90;;;;;;5093424;28;20385;-69
2023/04/18 09:12:43;;;;;;;;;;;13.70;99.90;;;;;;5097638;28;19976;-68
2023/04/18 09:15:15;;;;;;;;;;;13.70;99.90;;;;;;5097724;28;19955;-68
2023/04/18 09:17:48;;;;;;;;;;;13.90;99.90;;;;;;5095221;28;19912;-68
2023/04/18 09:20:29;;;;;;;;;;;13.90;99.90;;;;;;5097390;28;19932;-68
2023/04/18 09:22:59;;;;;;;;;;;14.00;99.90;;;;;;5096682;28;19920;-68
2023/04/18 09:25:27;;;;;;;;;;;14.20;99.90;;;;;;5096877;28;20373;-68
2023/04/18 09:27:59;;;;;;;;;;;14.30;99.90;;;;;;5097511;28;20010;-68
2023/04/18 09:30:29;;;;;;;;;;;14.40;99.90;;;;;;5082347;28;19916;-68
2023/04/18 09:33:02;;;;;;;;;;;14.70;99.90;;;;;;5094562;28;19916;-68
2023/04/18 09:35:28;;;;;;;;;;;15.00;99.90;;;;;;5097621;28;20017;-68
2023/04/18 09:37:54;;;;;;;;;;;15.30;99.90;;;;;;5098280;28;19908;-68
2023/04/18 09:40:20;;;;;;;;;;;15.60;99.90;;;;;;5096798;28;19924;-68
2023/04/18 09:42:47;;;;;;;;;;;15.70;99.90;;;;;;5097047;28;20369;-68
2023/04/18 09:45:12;;;;;;;;;;;15.90;99.90;;;;;;5097668;28;20293;-68
2023/04/18 09:47:38;;;;;;;;;;;16.30;99.90;;;;;;5097671;28;19916;-68
2023/04/18 09:50:05;;;;;;;;;;;16.40;99.90;;;;;;5096328;28;19992;-68
2023/04/18 09:52:32;;;;;;;;;;;16.50;99.90;;;;;;5097176;28;20514;-68
2023/04/18 09:54:58;;;;;;;;;;;16.70;99.90;;;;;;5097528;28;19991;-68
2023/04/18 09:57:25;;;;;;;;;;;16.70;99.90;;;;;;5096733;28;19951;-68
2023/04/18 10:00:07;;;;;;;;;;;17.00;99.90;;;;;;5098288;28;19911;-68
2023/04/18 10:02:37;;;;;;;;;;;17.20;99.90;;;;;;5097520;28;19912;-68
2023/04/18 10:05:03;;;;;;;;;;;17.20;99.90;;;;;;5099990;28;19951;-68
2023/04/18 10:07:30;;;;;;;;;;;17.00;99.90;;;;;;5087481;28;19959;-68
2023/04/18 10:09:56;;;;;;;;;;;17.20;99.90;;;;;;5097161;28;19948;-68
2023/04/18 10:12:21;;;;;;;;;;;17.30;99.90;;;;;;5096895;28;19970;-68
2023/04/18 10:14:48;;;;;;;;;;;17.40;99.90;;;;;;5098816;28;19918;-68
2023/04/18 10:17:14;;;;;;;;;;;17.30;99.90;;;;;;5097088;28;19934;-69
2023/04/18 10:19:40;;;;;;;;;;;17.30;99.90;;;;;;5088330;28;20015;-69
2023/04/18 10:22:06;;;;;;;;;;;16.80;99.90;;;;;;5095515;28;19962;-69
2023/04/18 10:24:48;;;;;;;;;;;17.00;99.90;;;;;;5096140;28;20016;-68
2023/04/18 10:27:17;;;;;;;;;;;16.60;99.90;;;;;;5096386;28;20284;-68
2023/04/18 10:29:50;;;;;;;;;;;16.70;99.90;;;;;;5089811;28;19916;-69
2023/04/18 10:32:17;;;;;;;;;;;16.60;99.90;;;;;;5093007;28;19920;-69
2023/04/18 10:34:48;;;;;;;;;;;16.60;99.90;;;;;;5099355;28;19912;-69
2023/04/18 10:37:14;;;;;;;;;;;16.70;99.90;;;;;;5098139;28;19916;-69
2023/04/18 10:39:52;;;;;;;;;;;16.60;99.90;;;;;;5096640;28;19923;-69
2023/04/18 10:42:21;;;;;;;;;;;16.60;99.90;;;;;;5092332;28;19912;-69
2023/04/18 10:45:09;;;;;;;;;;;16.60;99.90;;;;;;5096385;28;19916;-69
2023/04/18 10:47:35;;;;;;;;;;;16.40;99.90;;;;;;5096282;28;20049;-69
2023/04/18 10:50:03;;;;;;;;;;;16.80;99.90;;;;;;5095079;28;19950;-69
2023/04/18 10:52:29;;;;;;;;;;;16.70;99.90;;;;;;5084928;28;20340;-69
2023/04/18 10:55:04;;;;;;;;;;;17.10;99.90;;;;;;5095651;28;19920;-69
2023/04/18 10:57:40;;;;;;;;;;;17.10;99.90;;;;;;5093234;28;19982;-68
2023/04/18 11:00:10;;;;;;;;;;;17.20;99.90;;;;;;5094722;28;19952;-68
2023/04/18 11:02:35;;;;;;;;;;;17.20;99.90;;;;;;5110691;28;19916;-68
2023/04/18 11:05:03;;;;;;;;;;;17.20;99.90;;;;;;5095046;28;20383;-69
2023/04/18 11:07:39;;;;;;;;;;;17.20;99.90;;;;;;5095915;28;19916;-68
2023/04/18 11:10:06;;;;;;;;;;;16.90;99.90;;;;;;5095988;28;19916;-69
2023/04/18 11:12:33;;;;;;;;;;;16.90;99.90;;;;;;5095797;28;19916;-69
2023/04/18 11:15:00;;;;;;;;;;;16.90;99.90;;;;;;5096039;28;20552;-68
2023/04/18 11:17:27;;;;;;;;;;;17.00;99.90;;;;;;5092364;28;20250;-68
2023/04/18 11:20:05;;;;;;;;;;;16.90;99.90;;;;;;5095784;28;19918;-69
2023/04/18 11:22:31;;;;;;;;;;;17.30;99.90;;;;;;5095837;28;19916;-68
2023/04/18 11:25:05;;;;;;;;;;;17.20;99.90;;;;;;5095334;28;19918;-69
2023/04/18 11:27:31;;;;;;;;;;;17.40;99.90;;;;;;5095305;28;19916;-68
2023/04/18 11:29:57;;;;;;;;;;;17.40;99.50;;;;;;5094269;28;20419;-69
2023/04/18 11:32:23;;;;;;;;;;;17.60;99.90;;;;;;5098309;28;19916;-69
2023/04/18 11:34:52;;;;;;;;;;;17.70;99.90;;;;;;5094173;28;19920;-69
2023/04/18 11:37:18;;;;;;;;;;;17.60;99.90;;;;;;5096557;28;20388;-69
2023/04/18 11:39:44;;;;;;;;;;;17.50;99.90;;;;;;5094726;28;19912;-69
2023/04/18 11:42:10;;;;;;;;;;;17.20;99.90;;;;;;5082321;28;19916;-69
2023/04/18 11:44:38;;;;;;;;;;;16.80;99.90;;;;;;5095318;28;20273;-69
2023/04/18 11:47:20;;;;;;;;;;;16.60;99.90;;;;;;5093012;28;20261;-69
2023/04/18 11:49:46;;;;;;;;;;;16.70;99.90;;;;;;5096449;28;19935;-69
2023/04/18 11:52:12;;;;;;;;;;;16.70;99.90;;;;;;5094822;28;19955;-69
2023/04/18 11:54:42;;;;;;;;;;;16.70;99.90;;;;;;5094886;28;19916;-69
2023/04/18 11:57:24;;;;;;;;;;;16.70;99.90;;;;;;5095292;28;20324;-69
2023/04/18 11:59:55;;;;;;;;;;;16.60;99.90;;;;;;5095786;28;19916;-69
2023/04/18 12:02:21;;;;;;;;;;;16.40;99.90;;;;;;5095530;28;19922;-69
2023/04/18 12:04:54;;;;;;;;;;;16.20;99.90;;;;;;5095043;28;19999;-69
2023/04/18 12:07:32;;;;;;;;;;;16.10;99.90;;;;;;5095281;28;19916;-69
2023/04/18 12:09:58;;;;;;;;;;;15.80;99.90;;;;;;5095127;28;19966;-69
2023/04/18 12:12:24;;;;;;;;;;;15.70;99.90;;;;;;5094160;28;19916;-69
2023/04/18 12:14:58;;;;;;;;;;;15.60;99.90;;;;;;5095121;28;19916;-69
2023/04/18 12:17:26;;;;;;;;;;;15.60;99.90;;;;;;5094343;28;20202;-69
2023/04/18 12:19:52;;;;;;;;;;;15.50;99.90;;;;;;5094342;28;20001;-69
2023/04/18 12:22:18;;;;;;;;;;;15.40;99.90;;;;;;5094140;28;19912;-69
2023/04/18 12:24:45;;;;;;;;;;;15.30;99.90;;;;;;5094663;28;19965;-69
2023/04/18 12:27:10;;;;;;;;;;;15.40;99.90;;;;;;5094926;28;19966;-69
2023/04/18 12:29:36;;;;;;;;;;;15.60;99.90;;;;;;5092413;28;19916;-69
2023/04/18 12:32:02;;;;;;;;;;;15.70;99.90;;;;;;5093742;28;19916;-69
2023/04/18 12:34:28;;;;;;;;;;;16.10;99.90;;;;;;5094021;28;19912;-69
2023/04/18 12:36:54;;;;;;;;;;;16.50;99.90;;;;;;5094411;28;19980;-69
2023/04/18 12:39:19;;;;;;;;;;;16.90;99.90;;;;;;5095049;28;19951;-69
2023/04/18 12:41:45;;;;;;;;;;;17.10;99.90;;;;;;5093989;28;19912;-69
2023/04/18 12:44:11;;;;;;;;;;;17.30;99.90;;;;;;5094060;28;20038;-69
2023/04/18 12:46:37;;;;;;;;;;;17.30;99.90;;;;;;5096263;28;19916;-69
2023/04/18 12:49:03;;;;;;;;;;;17.40;99.90;;;;;;5098384;28;19951;-69
2023/04/18 12:51:29;;;;;;;;;;;17.50;99.90;;;;;;5098798;28;19916;-69
2023/04/18 12:53:55;;;;;;;;;;;17.50;99.90;;;;;;5099187;28;19966;-69
2023/04/18 12:56:21;;;;;;;;;;;17.60;99.90;;;;;;5098687;28;19924;-69
2023/04/18 12:58:46;;;;;;;;;;;17.60;99.90;;;;;;5098733;28;19958;-69
2023/04/18 13:01:12;;;;;;;;;;;17.70;99.90;;;;;;5098301;28;20470;-69
2023/04/18 13:03:38;;;;;;;;;;;17.60;99.90;;;;;;5095884;28;20012;-69
2023/04/18 13:06:05;;;;;;;;;;;17.60;99.90;;;;;;5080093;28;19966;-69
2023/04/18 13:08:31;;;;;;;;;;;17.60;99.90;;;;;;5098634;28;19920;-69
2023/04/18 13:10:57;;;;;;;;;;;17.50;99.90;;;;;;5098333;28;19916;-69
2023/04/18 13:13:23;;;;;;;;;;;17.50;99.90;;;;;;5098147;28;19912;-69
2023/04/18 13:15:49;;;;;;;;;;;17.70;99.90;;;;;;5098144;28;19927;-69
2023/04/18 13:18:15;;;;;;;;;;;17.50;99.00;;;;;;5098309;28;20345;-69
2023/04/18 13:20:41;;;;;;;;;;;17.60;98.90;;;;;;5098222;28;19908;-69
2023/04/18 13:23:06;;;;;;;;;;;17.60;99.20;;;;;;5098068;28;19961;-69
2023/04/18 13:25:32;;;;;;;;;;;17.60;99.90;;;;;;5098536;28;19915;-69
2023/04/18 13:27:59;;;;;;;;;;;17.40;99.90;;;;;;5098281;28;20002;-69
2023/04/18 13:30:25;;;;;;;;;;;17.50;99.90;;;;;;5098248;28;19923;-69
2023/04/18 13:32:51;;;;;;;;;;;17.60;99.90;;;;;;5097971;28;20010;-69
2023/04/18 13:35:16;;;;;;;;;;;17.50;99.90;;;;;;5098156;28;19915;-69
2023/04/18 13:37:42;;;;;;;;;;;17.40;99.90;;;;;;5098061;28;19951;-69
2023/04/18 13:40:08;;;;;;;;;;;17.40;99.90;;;;;;5097871;28;19912;-69
2023/04/18 13:42:37;;;;;;;;;;;17.50;99.90;;;;;;5098000;28;19912;-69
2023/04/18 13:45:03;;;;;;;;;;;17.60;99.90;;;;;;5097679;28;19912;-69
2023/04/18 13:47:29;;;;;;;;;;;17.60;99.90;;;;;;5098168;28;19908;-69
2023/04/18 13:49:56;;;;;;;;;;;17.70;99.90;;;;;;5097891;28;19923;-69
2023/04/18 13:52:22;;;;;;;;;;;17.70;99.90;;;;;;5097608;28;19920;-69
2023/04/18 13:54:48;;;;;;;;;;;17.60;99.90;;;;;;5097636;28;19912;-69
2023/04/18 13:57:14;;;;;;;;;;;17.50;99.90;;;;;;5097496;28;19916;-69
2023/04/18 13:59:39;;;;;;;;;;;17.20;99.90;;;;;;5097550;28;20011;-69
2023/04/18 14:02:08;;;;;;;;;;;17.00;99.90;;;;;;5097751;28;20010;-69
2023/04/18 14:04:34;;;;;;;;;;;16.70;99.90;;;;;;5097570;28;19912;-69
2023/04/18 14:07:01;;;;;;;;;;;16.50;99.90;;;;;;5097415;28;19916;-69
2023/04/18 14:09:27;;;;;;;;;;;16.30;99.90;;;;;;5097398;28;19951;-69
2023/04/18 14:11:53;;;;;;;;;;;16.00;99.90;;;;;;5097282;28;20411;-69
2023/04/18 14:14:19;;;;;;;;;;;15.80;99.90;;;;;;5097325;28;19920;-69
2023/04/18 14:16:44;;;;;;;;;;;15.70;99.90;;;;;;5097524;28;19916;-69